West Point, New York
Current Conditions -  °F | °C
As of 12:45 AM on Wednesday 22 Oct 2014 (Local Time) from KSWF Reporting Station
Overcast Overcast  
Wind Chill: 52°   Ceiling: 900
Heat Index: 52°   Visibility: 7mi
Dew Point: 52°   Wind: 3mph
Humidity: 100%   Direction: NA
Pressure: 29.95"   Gusts: NA
Location:  41.4°N, 73.95°W
Report Text: KSWF 220445Z VRB03KT 7SM OVC009 11/11 A2995
Loading
Personal Weather Stations






























Interactive Weather Map
Tropical Storm Tracking
New forecast layout! Learn more

10-Day Weather Forecast

Advertisements
Track Severe Weather on mobile